Llanfairfechan, United Kingdom
Current Conditions -  °F | °C
As of 5:50 AM on Monday 26 Jan 2015 (Local Time) from EGOV Reporting Station
Scattered Clouds Scattered Clouds  
Wind Chill:   Ceiling: Unl
Heat Index:   Visibility: 6mi
Dew Point:   Wind: 16mph
Humidity: 76%   Direction: 300°WNW
Pressure: 30.18"   Gusts: NA
Location:  53.26°N, 3.97°W
Report Text: EGOV 260550Z 30014KT 9999 FEW025 SCT031 07/03 Q1022 BLU
Loading
Personal Weather Stations






























Interactive Weather Map New forecast layout! Learn more

10-Day Weather Forecast

Advertisements
Track Severe Weather on mobile